Ridge Farm, Illinois
Current Conditions -  °F | °C
As of 5:55 AM on Friday 31 Oct 2014 (Local Time) from KPRG Reporting Station
Overcast Overcast  
Wind Chill: 44°   Ceiling: 3300
Heat Index: 44°   Visibility: 7mi
Dew Point: 42°   Wind: 3mph
Humidity: 95%   Direction: 280°W
Pressure: 30.05"   Gusts: NA
Location:  39.9°N, 87.65°W
Report Text: KPRG 311055Z AUTO 28003KT 7SM BKN033 OVC055 07/06 A3005 RMK AO2 T00650057
Loading
Personal Weather Stations






























Interactive Weather Map
Tropical Storm Tracking
New forecast layout! Learn more

10-Day Weather Forecast

Advertisements
Track Severe Weather on mobile